Time;durP1;ratioP1;P1;durP2;ratioP2;P2;SDS_P1;SDS_P2;PMS_P1;PMS_P2;Temp;Humidity;BMP_temperature;BMP_pressure;BME280_temperature;BME280_humidity;BME280_pressure;Samples;Min_cycle;Max_cycle;Signal;HPM_P1;HPM_P2
2023/12/12 00:01:57;;;;;;;18.60;4.17;;;10.20;99.90;;;;;;5053338;28;20465;-62
2023/12/12 00:04:25;;;;;;;10.87;3.33;;;10.10;99.90;;;;;;5053003;28;20886;-62
2023/12/12 00:06:52;;;;;;;15.47;3.87;;;10.20;99.90;;;;;;5053347;28;20456;-62
2023/12/12 00:09:19;;;;;;;18.73;3.70;;;10.20;99.90;;;;;;5053231;28;20871;-62
2023/12/12 00:11:46;;;;;;;12.13;2.77;;;10.20;99.90;;;;;;5053211;28;20461;-62
2023/12/12 00:14:12;;;;;;;12.63;3.43;;;10.20;99.90;;;;;;5053069;28;20932;-62
2023/12/12 00:16:39;;;;;;;11.17;3.13;;;10.20;99.90;;;;;;5052873;28;20931;-62
2023/12/12 00:19:06;;;;;;;12.23;3.30;;;10.20;99.90;;;;;;5053096;28;20489;-62
2023/12/12 00:21:34;;;;;;;15.93;3.50;;;10.20;99.90;;;;;;5053007;28;20466;-62
2023/12/12 00:24:00;;;;;;;18.00;3.70;;;10.20;99.90;;;;;;5053299;28;20448;-62
2023/12/12 00:26:27;;;;;;;13.47;3.40;;;10.20;99.90;;;;;;5052862;28;20441;-62
2023/12/12 00:28:54;;;;;;;15.50;3.50;;;10.20;99.90;;;;;;5052923;28;20449;-63
2023/12/12 00:31:20;;;;;;;16.23;4.10;;;10.20;99.90;;;;;;5053037;28;20466;-63
2023/12/12 00:33:47;;;;;;;11.70;3.03;;;10.20;99.90;;;;;;5053040;28;20433;-61
2023/12/12 00:36:14;;;;;;;13.10;3.10;;;10.20;99.90;;;;;;5053456;28;20441;-63
2023/12/12 00:38:42;;;;;;;13.97;3.20;;;10.20;99.90;;;;;;5053077;28;20485;-62
2023/12/12 00:41:08;;;;;;;19.63;3.93;;;10.20;99.90;;;;;;5052663;28;20465;-62
2023/12/12 00:43:35;;;;;;;16.43;3.60;;;10.20;99.90;;;;;;5052951;28;20446;-63
2023/12/12 00:46:02;;;;;;;18.70;4.40;;;10.20;99.90;;;;;;5053274;28;20442;-63
2023/12/12 00:48:28;;;;;;;15.47;3.40;;;10.20;99.90;;;;;;5053621;28;20445;-63
2023/12/12 00:50:55;;;;;;;14.57;3.70;;;10.20;99.90;;;;;;5056821;28;20851;-62
2023/12/12 00:53:22;;;;;;;16.90;3.43;;;10.20;99.90;;;;;;5056770;28;20456;-62
2023/12/12 00:55:50;;;;;;;18.67;3.20;;;10.20;99.90;;;;;;5056855;28;20445;-63
2023/12/12 00:58:17;;;;;;;21.90;4.30;;;10.20;99.90;;;;;;5056575;28;20455;-63
2023/12/12 01:00:44;;;;;;;16.90;3.73;;;10.20;99.90;;;;;;5055727;28;20522;-62
2023/12/12 01:03:10;;;;;;;18.43;3.70;;;10.20;99.90;;;;;;5056297;28;20449;-63
2023/12/12 01:05:40;;;;;;;13.10;3.57;;;10.20;99.90;;;;;;5056656;28;20503;-63
2023/12/12 01:08:08;;;;;;;17.13;3.30;;;10.10;99.90;;;;;;5056765;28;20445;-63
2023/12/12 01:10:35;;;;;;;21.67;4.50;;;10.10;99.90;;;;;;5056473;28;20548;-63
2023/12/12 01:13:04;;;;;;;15.57;3.60;;;10.10;99.90;;;;;;5056413;28;20445;-63
2023/12/12 01:15:31;;;;;;;12.40;3.67;;;10.10;99.90;;;;;;5056447;28;20445;-63
2023/12/12 01:17:57;;;;;;;13.30;3.57;;;10.10;99.90;;;;;;5056419;28;20962;-63
2023/12/12 01:20:24;;;;;;;22.00;4.03;;;10.10;99.90;;;;;;5055973;28;21018;-62
2023/12/12 01:22:50;;;;;;;16.10;4.10;;;10.10;99.90;;;;;;5055811;28;21055;-63
2023/12/12 01:25:17;;;;;;;15.10;3.53;;;10.10;99.90;;;;;;5056282;28;20446;-63
2023/12/12 01:27:44;;;;;;;18.47;4.00;;;10.10;99.90;;;;;;5055944;28;20931;-62
2023/12/12 01:30:13;;;;;;;13.43;4.23;;;10.10;99.90;;;;;;5055945;28;20866;-63
2023/12/12 01:32:39;;;;;;;20.13;4.43;;;10.00;99.90;;;;;;5056100;28;20457;-63
2023/12/12 01:35:07;;;;;;;16.17;3.80;;;10.00;99.90;;;;;;5055897;28;20456;-62
2023/12/12 01:37:33;;;;;;;11.07;3.30;;;10.00;99.90;;;;;;5056068;28;20442;-62
2023/12/12 01:40:00;;;;;;;16.03;4.17;;;10.00;99.90;;;;;;5056190;28;20477;-63
2023/12/12 01:42:27;;;;;;;22.70;3.97;;;10.10;99.90;;;;;;5056205;28;20450;-62
2023/12/12 01:44:56;;;;;;;22.27;3.40;;;10.10;99.90;;;;;;5056294;28;20442;-62
2023/12/12 01:47:25;;;;;;;15.20;3.27;;;10.10;99.90;;;;;;5056145;28;20452;-62
2023/12/12 01:49:52;;;;;;;23.63;4.17;;;10.10;99.90;;;;;;5056081;28;20438;-62
2023/12/12 01:52:20;;;;;;;21.47;4.80;;;10.10;99.90;;;;;;5055912;28;20441;-62
2023/12/12 01:54:50;;;;;;;21.13;3.53;;;10.10;99.90;;;;;;5055551;28;20799;-63
2023/12/12 01:57:19;;;;;;;20.27;4.60;;;10.10;99.90;;;;;;5055497;28;20966;-63
2023/12/12 01:59:47;;;;;;;23.97;5.03;;;10.10;99.90;;;;;;5055444;28;20488;-63
2023/12/12 02:02:16;;;;;;;19.30;4.33;;;10.10;99.90;;;;;;5055738;28;20442;-63
2023/12/12 02:04:46;;;;;;;21.20;3.90;;;10.10;99.90;;;;;;5056062;28;20449;-62
2023/12/12 02:07:14;;;;;;;16.70;3.63;;;10.10;99.90;;;;;;5056092;28;20503;-63
2023/12/12 02:09:42;;;;;;;13.67;3.87;;;10.10;99.90;;;;;;5056065;28;20445;-63
2023/12/12 02:12:08;;;;;;;22.93;5.87;;;10.10;99.90;;;;;;5056195;28;20458;-63
2023/12/12 02:14:37;;;;;;;14.60;3.00;;;10.00;99.90;;;;;;5056538;28;20962;-63
2023/12/12 02:17:04;;;;;;;22.63;4.70;;;10.00;99.90;;;;;;5056777;28;20455;-63
2023/12/12 02:19:31;;;;;;;35.03;4.40;;;10.00;99.90;;;;;;5056138;28;20489;-63
2023/12/12 02:21:59;;;;;;;18.00;4.10;;;10.00;99.90;;;;;;5055220;28;20979;-63
2023/12/12 02:24:26;;;;;;;23.03;4.20;;;9.90;99.90;;;;;;5055299;28;20966;-63
2023/12/12 02:26:52;;;;;;;17.77;5.90;;;9.90;99.90;;;;;;5055139;28;20936;-63
2023/12/12 02:29:19;;;;;;;25.20;5.40;;;9.90;99.90;;;;;;5055482;28;20438;-63
2023/12/12 02:31:46;;;;;;;21.50;3.90;;;9.90;99.90;;;;;;5055168;28;20462;-63
2023/12/12 02:34:12;;;;;;;20.30;4.20;;;9.90;99.90;;;;;;5055019;28;20453;-63
2023/12/12 02:36:39;;;;;;;11.90;3.40;;;9.80;99.90;;;;;;5055164;28;20450;-63
2023/12/12 02:39:07;;;;;;;26.90;4.70;;;9.80;99.90;;;;;;5055108;28;20448;-62
2023/12/12 02:41:34;;;;;;;23.33;5.70;;;9.80;99.90;;;;;;5055534;28;20474;-62
2023/12/12 02:44:00;;;;;;;18.70;4.70;;;9.70;99.90;;;;;;5054971;28;20852;-63
2023/12/12 02:46:27;;;;;;;14.67;3.90;;;9.80;99.90;;;;;;5054845;28;20438;-63
2023/12/12 02:48:54;;;;;;;25.77;5.33;;;9.70;99.90;;;;;;5054753;28;20438;-63
2023/12/12 02:51:20;;;;;;;12.43;3.17;;;9.70;99.90;;;;;;5054698;28;20471;-62
2023/12/12 02:53:47;;;;;;;14.03;3.73;;;9.60;99.90;;;;;;5055464;28;20441;-62
2023/12/12 02:56:15;;;;;;;19.23;3.93;;;9.60;99.90;;;;;;5054628;28;20453;-62
2023/12/12 02:58:42;;;;;;;17.53;4.37;;;9.60;99.90;;;;;;5054599;28;20449;-62
2023/12/12 03:01:12;;;;;;;22.33;3.53;;;9.60;99.90;;;;;;5054538;28;20505;-62
2023/12/12 03:03:39;;;;;;;21.50;4.87;;;9.60;99.90;;;;;;5054166;28;20461;-62
2023/12/12 03:06:07;;;;;;;19.47;4.50;;;9.60;99.90;;;;;;5054227;28;20441;-62
2023/12/12 03:08:34;;;;;;;24.00;4.07;;;9.60;99.90;;;;;;5054426;28;20487;-63
2023/12/12 03:11:01;;;;;;;23.67;4.37;;;9.60;99.90;;;;;;5054177;28;20480;-63
2023/12/12 03:13:29;;;;;;;14.80;3.83;;;9.60;99.90;;;;;;5053266;28;20537;-63
2023/12/12 03:15:56;;;;;;;18.40;3.80;;;9.60;99.90;;;;;;5054345;28;20499;-63
2023/12/12 03:18:22;;;;;;;16.67;4.33;;;9.60;99.90;;;;;;5054155;28;20453;-63
2023/12/12 03:20:49;;;;;;;15.73;3.43;;;9.60;99.90;;;;;;5053778;28;21046;-63
2023/12/12 03:23:16;;;;;;;16.70;4.10;;;9.60;99.90;;;;;;5054001;28;20817;-62
2023/12/12 03:25:42;;;;;;;12.67;3.80;;;9.60;99.90;;;;;;5054100;28;20453;-62
2023/12/12 03:28:09;;;;;;;23.13;3.90;;;9.60;99.90;;;;;;5053917;28;20445;-62
2023/12/12 03:30:37;;;;;;;11.57;4.13;;;9.60;99.90;;;;;;5053857;28;20549;-62
2023/12/12 03:33:04;;;;;;;15.80;4.47;;;9.60;99.90;;;;;;5053930;28;20496;-63
2023/12/12 03:35:31;;;;;;;25.43;5.87;;;9.60;99.90;;;;;;5053862;28;20445;-62
2023/12/12 03:37:57;;;;;;;13.73;4.87;;;9.60;99.90;;;;;;5053706;28;20460;-62
2023/12/12 03:40:24;;;;;;;16.17;5.13;;;9.60;99.90;;;;;;5053696;28;20494;-63
2023/12/12 03:42:50;;;;;;;11.70;5.50;;;9.60;99.90;;;;;;5053762;28;20449;-63
2023/12/12 03:45:17;;;;;;;19.07;4.90;;;9.50;99.90;;;;;;5053718;28;20465;-63
2023/12/12 03:47:45;;;;;;;14.13;4.53;;;9.60;99.90;;;;;;5053361;28;20450;-63
2023/12/12 03:50:12;;;;;;;19.00;4.90;;;9.60;99.90;;;;;;5053215;28;21003;-63
2023/12/12 03:52:39;;;;;;;28.83;4.63;;;9.60;99.90;;;;;;5053878;28;20577;-63
2023/12/12 03:55:07;;;;;;;25.10;5.57;;;9.60;99.90;;;;;;5053384;28;20457;-63
2023/12/12 03:57:34;;;;;;;15.90;4.53;;;9.60;99.90;;;;;;5053161;28;20853;-63
2023/12/12 04:00:03;;;;;;;17.70;4.13;;;9.60;99.90;;;;;;5053315;28;20481;-63
2023/12/12 04:02:30;;;;;;;22.20;4.40;;;9.60;99.90;;;;;;5052948;28;20822;-62
2023/12/12 04:04:58;;;;;;;14.67;3.47;;;9.60;99.90;;;;;;5053002;28;20904;-62
2023/12/12 04:07:24;;;;;;;15.00;4.17;;;9.60;99.90;;;;;;5053385;28;20445;-62
2023/12/12 04:09:51;;;;;;;16.43;5.77;;;9.60;99.90;;;;;;5058802;28;20943;-62
2023/12/12 04:12:18;;;;;;;17.87;5.20;;;9.60;99.90;;;;;;5061994;28;20461;-62
2023/12/12 04:14:45;;;;;;;18.37;4.17;;;9.60;99.90;;;;;;5060425;28;20879;-62
2023/12/12 04:17:13;;;;;;;15.87;3.90;;;9.60;99.90;;;;;;5053268;28;20532;-62
2023/12/12 04:19:39;;;;;;;17.30;3.83;;;9.60;99.90;;;;;;5052857;28;20869;-62
2023/12/12 04:22:07;;;;;;;13.10;3.90;;;9.60;99.90;;;;;;5053024;28;20955;-62
2023/12/12 04:24:36;;;;;;;25.13;5.23;;;9.60;99.90;;;;;;5052806;28;20446;-62
2023/12/12 04:27:02;;;;;;;12.10;3.33;;;9.60;99.90;;;;;;5053032;28;20502;-61
2023/12/12 04:29:29;;;;;;;14.43;4.20;;;9.60;99.90;;;;;;5053175;28;20444;-61
2023/12/12 04:31:56;;;;;;;13.17;3.47;;;9.60;99.90;;;;;;5052576;28;20995;-62
2023/12/12 04:34:23;;;;;;;16.37;3.80;;;9.60;99.90;;;;;;5052955;28;20498;-62
2023/12/12 04:36:50;;;;;;;13.73;3.10;;;9.60;99.90;;;;;;5052601;28;20445;-62
2023/12/12 04:39:18;;;;;;;15.97;3.60;;;9.60;99.90;;;;;;5052931;28;20441;-62
2023/12/12 04:41:45;;;;;;;14.50;4.23;;;9.60;99.90;;;;;;5052764;28;20492;-62
2023/12/12 04:44:11;;;;;;;17.37;3.60;;;9.60;99.90;;;;;;5052508;28;20940;-62
2023/12/12 04:46:38;;;;;;;13.83;4.03;;;9.50;99.90;;;;;;5052820;28;20500;-62
2023/12/12 04:49:05;;;;;;;12.30;3.33;;;9.50;99.90;;;;;;5052439;28;20851;-62
2023/12/12 04:51:31;;;;;;;12.43;4.30;;;9.50;99.90;;;;;;5053030;28;20468;-62
2023/12/12 04:53:58;;;;;;;13.60;3.70;;;9.50;99.90;;;;;;5053206;28;20452;-61
2023/12/12 04:56:26;;;;;;;25.03;4.67;;;9.50;99.90;;;;;;5053295;28;20445;-61
2023/12/12 04:58:53;;;;;;;17.73;4.60;;;9.50;99.90;;;;;;5053103;28;20446;-61
2023/12/12 05:01:19;;;;;;;13.13;3.30;;;9.50;99.90;;;;;;5053053;28;20485;-61
2023/12/12 05:03:46;;;;;;;12.50;3.70;;;9.50;99.90;;;;;;5052926;28;20540;-61
2023/12/12 05:06:13;;;;;;;17.47;3.67;;;9.50;99.90;;;;;;5052952;28;20788;-61
2023/12/12 05:08:42;;;;;;;20.03;3.80;;;9.50;99.90;;;;;;5053353;28;20442;-61
2023/12/12 05:11:09;;;;;;;16.60;4.30;;;9.50;99.90;;;;;;5052888;28;20493;-62
2023/12/12 05:13:37;;;;;;;27.40;5.13;;;9.50;99.90;;;;;;5052510;28;20473;-60
2023/12/12 05:16:05;;;;;;;11.90;3.67;;;9.50;99.90;;;;;;5053035;28;20449;-61
2023/12/12 05:18:31;;;;;;;14.73;4.53;;;9.50;99.90;;;;;;5052463;28;20931;-61
2023/12/12 05:20:58;;;;;;;24.73;4.27;;;9.50;99.90;;;;;;5052382;28;20998;-61
2023/12/12 05:23:25;;;;;;;15.50;3.93;;;9.50;99.90;;;;;;5052643;28;20449;-61
2023/12/12 05:25:52;;;;;;;11.53;3.13;;;9.50;99.90;;;;;;5052486;28;20879;-61
2023/12/12 05:28:18;;;;;;;17.17;3.37;;;9.50;99.90;;;;;;5052621;28;20449;-61
2023/12/12 05:30:47;;;;;;;15.00;4.10;;;9.40;99.90;;;;;;5052589;28;20458;-61
2023/12/12 05:33:12;;;;;;;16.37;3.67;;;9.40;99.90;;;;;;5052615;28;20441;-61
2023/12/12 05:35:39;;;;;;;12.00;3.73;;;9.40;99.90;;;;;;5053517;28;20491;-61
2023/12/12 05:38:07;;;;;;;11.60;3.37;;;9.40;99.90;;;;;;5056169;28;20218;-60
2023/12/12 05:40:34;;;;;;;17.07;3.70;;;9.40;99.90;;;;;;5055973;28;20509;-60
2023/12/12 05:43:01;;;;;;;16.97;4.53;;;9.30;99.90;;;;;;5056001;28;20456;-61
2023/12/12 05:45:27;;;;;;;18.13;4.87;;;9.30;99.90;;;;;;5055913;28;20450;-61
2023/12/12 05:47:55;;;;;;;21.70;4.20;;;9.20;99.90;;;;;;5055944;28;20442;-61
2023/12/12 05:50:22;;;;;;;22.73;3.50;;;9.20;99.90;;;;;;5055492;28;20462;-61
2023/12/12 05:52:50;;;;;;;14.80;3.87;;;9.20;99.90;;;;;;5055300;28;20445;-62
2023/12/12 05:55:17;;;;;;;18.80;3.50;;;9.20;99.90;;;;;;5055867;28;20452;-63
2023/12/12 05:57:44;;;;;;;21.37;4.27;;;9.20;99.90;;;;;;5055868;28;20442;-61
2023/12/12 06:00:11;;;;;;;13.43;3.60;;;9.20;99.90;;;;;;5055468;28;20485;-61
2023/12/12 06:02:38;;;;;;;10.40;3.10;;;9.20;99.90;;;;;;5055509;28;20820;-61
2023/12/12 06:05:07;;;;;;;13.63;3.60;;;9.20;99.90;;;;;;5056164;28;20418;-61
2023/12/12 06:07:34;;;;;;;12.40;3.13;;;9.20;99.90;;;;;;5055637;28;20861;-61
2023/12/12 06:10:01;;;;;;;13.20;3.30;;;9.10;99.90;;;;;;5055665;28;20447;-61
2023/12/12 06:12:27;;;;;;;15.53;3.07;;;9.20;99.90;;;;;;5055558;28;20449;-61
2023/12/12 06:14:54;;;;;;;17.00;3.00;;;9.20;99.90;;;;;;5055688;28;20481;-61
2023/12/12 06:17:21;;;;;;;9.90;3.30;;;9.10;99.90;;;;;;5055966;28;20545;-60
2023/12/12 06:19:46;;;;;;;12.20;3.40;;;9.10;99.90;;;;;;5055495;28;20445;-61
2023/12/12 06:22:14;;;;;;;11.53;4.03;;;9.10;99.90;;;;;;5055199;28;20477;-60
2023/12/12 06:24:41;;;;;;;11.23;3.73;;;9.10;99.90;;;;;;5055450;28;20199;-61
2023/12/12 06:27:08;;;;;;;17.40;4.20;;;9.10;99.90;;;;;;5055251;28;20450;-60
2023/12/12 06:29:35;;;;;;;16.00;3.33;;;9.10;99.90;;;;;;5055189;28;20483;-61
2023/12/12 06:32:01;;;;;;;18.57;4.70;;;9.10;99.90;;;;;;5055277;28;20466;-60
2023/12/12 06:34:28;;;;;;;20.07;4.63;;;9.10;99.90;;;;;;5054935;28;20442;-60
2023/12/12 06:36:55;;;;;;;14.30;3.57;;;9.10;99.90;;;;;;5055299;28;20441;-61
2023/12/12 06:39:23;;;;;;;22.13;4.73;;;9.10;99.90;;;;;;5054845;28;20473;-61
2023/12/12 06:41:50;;;;;;;21.03;4.63;;;9.10;99.90;;;;;;5054736;28;20491;-61
2023/12/12 06:44:17;;;;;;;19.43;4.57;;;9.10;99.90;;;;;;5054832;28;20449;-61
2023/12/12 06:46:43;;;;;;;13.93;4.20;;;9.30;99.90;;;;;;5054496;28;20449;-61
2023/12/12 06:49:10;;;;;;;15.33;5.27;;;9.20;99.90;;;;;;5054731;28;20869;-61
2023/12/12 06:51:37;;;;;;;14.73;3.93;;;9.30;99.90;;;;;;5054631;28;20458;-61
2023/12/12 06:54:03;;;;;;;14.50;4.00;;;9.30;99.90;;;;;;5054485;28;20442;-61
2023/12/12 06:56:31;;;;;;;12.27;3.80;;;9.30;99.90;;;;;;5054597;28;20446;-61
2023/12/12 06:58:58;;;;;;;20.03;5.37;;;9.30;99.90;;;;;;5054907;28;20448;-61
2023/12/12 07:01:25;;;;;;;16.20;4.13;;;9.30;99.90;;;;;;5054316;28;20485;-60
2023/12/12 07:03:52;;;;;;;10.03;3.00;;;9.30;99.90;;;;;;5054319;28;20457;-60
2023/12/12 07:06:19;;;;;;;15.73;4.43;;;9.40;99.90;;;;;;5054624;28;20448;-60
2023/12/12 07:08:46;;;;;;;18.33;5.93;;;9.30;99.90;;;;;;5054480;28;20473;-61
2023/12/12 07:11:13;;;;;;;20.43;4.87;;;9.30;99.90;;;;;;5054451;28;20484;-60
2023/12/12 07:13:41;;;;;;;11.70;3.30;;;9.30;99.90;;;;;;5053970;28;20961;-61
2023/12/12 07:16:10;;;;;;;18.00;3.67;;;9.30;99.90;;;;;;5054300;28;20820;-61
2023/12/12 07:18:37;;;;;;;14.03;4.73;;;9.30;99.90;;;;;;5054151;28;20832;-61
2023/12/12 07:21:04;;;;;;;15.97;4.17;;;9.40;99.90;;;;;;5054096;28;20517;-61
2023/12/12 07:23:31;;;;;;;12.17;3.80;;;9.40;99.90;;;;;;5054660;28;20442;-61
2023/12/12 07:25:59;;;;;;;14.17;4.07;;;9.40;99.90;;;;;;5054802;28;20935;-61
2023/12/12 07:28:26;;;;;;;10.73;3.53;;;9.40;99.90;;;;;;5054482;28;20446;-61
2023/12/12 07:30:54;;;;;;;15.80;4.27;;;9.50;99.90;;;;;;5055364;28;20458;-61
2023/12/12 07:33:21;;;;;;;17.53;5.70;;;9.50;99.90;;;;;;5055056;28;20559;-61
2023/12/12 07:35:48;;;;;;;11.93;4.23;;;9.50;99.90;;;;;;5053767;28;20441;-61
2023/12/12 07:38:16;;;;;;;14.97;3.37;;;9.50;99.90;;;;;;5053702;28;20447;-61
2023/12/12 07:40:43;;;;;;;12.03;3.53;;;9.50;99.90;;;;;;5053631;28;20485;-61
2023/12/12 07:43:10;;;;;;;14.73;4.30;;;9.60;99.90;;;;;;5053276;28;20935;-61
2023/12/12 07:45:36;;;;;;;21.27;4.20;;;9.60;99.90;;;;;;5053668;28;20460;-61
2023/12/12 07:48:05;;;;;;;17.53;4.10;;;9.70;99.90;;;;;;5053639;28;20448;-61
2023/12/12 07:50:32;;;;;;;11.13;3.37;;;9.70;99.90;;;;;;5053244;28;20869;-61
2023/12/12 07:52:59;;;;;;;19.53;5.17;;;9.70;99.90;;;;;;5053476;28;20442;-61
2023/12/12 07:55:26;;;;;;;27.03;4.90;;;9.80;99.90;;;;;;5053223;28;20533;-61
2023/12/12 07:57:53;;;;;;;15.30;4.17;;;9.80;99.90;;;;;;5053070;28;20532;-61
2023/12/12 08:00:20;;;;;;;16.93;4.60;;;9.80;99.90;;;;;;5053149;28;20472;-61
2023/12/12 08:02:47;;;;;;;18.93;4.30;;;9.80;99.90;;;;;;5053355;28;20482;-61
2023/12/12 08:05:15;;;;;;;11.33;3.20;;;9.80;99.90;;;;;;5053641;28;20450;-61
2023/12/12 08:07:42;;;;;;;19.97;4.30;;;9.80;99.90;;;;;;5053792;28;20441;-61
2023/12/12 08:10:09;;;;;;;17.13;3.60;;;9.80;99.90;;;;;;5053297;28;20472;-61
2023/12/12 08:12:36;;;;;;;13.13;4.07;;;9.90;99.90;;;;;;5053778;28;20437;-61
2023/12/12 08:15:03;;;;;;;20.87;3.87;;;9.90;99.90;;;;;;5054095;28;20454;-61
2023/12/12 08:17:30;;;;;;;20.60;4.73;;;10.00;99.90;;;;;;5053632;28;20442;-61
2023/12/12 08:19:57;;;;;;;15.90;3.87;;;10.00;99.90;;;;;;5053510;28;20448;-61
2023/12/12 08:22:25;;;;;;;13.53;3.80;;;10.00;99.90;;;;;;5053645;28;20894;-61
2023/12/12 08:24:54;;;;;;;12.20;4.13;;;10.00;99.90;;;;;;5053872;28;20463;-61
2023/12/12 08:27:21;;;;;;;28.40;4.37;;;10.00;99.90;;;;;;5053570;28;20449;-61
2023/12/12 08:29:48;;;;;;;17.13;4.03;;;10.10;99.90;;;;;;5053131;28;20445;-61
2023/12/12 08:32:16;;;;;;;11.60;4.70;;;10.10;99.90;;;;;;5053205;28;20469;-61
2023/12/12 08:34:42;;;;;;;16.83;4.57;;;10.10;99.90;;;;;;5052626;28;20947;-61
2023/12/12 08:37:09;;;;;;;18.60;5.53;;;10.20;99.90;;;;;;5053142;28;20445;-61
2023/12/12 08:39:38;;;;;;;17.33;4.73;;;10.30;99.90;;;;;;5053443;28;20442;-61
2023/12/12 08:42:05;;;;;;;13.33;4.57;;;10.30;99.90;;;;;;5052757;28;20988;-61
2023/12/12 08:44:32;;;;;;;14.13;3.80;;;10.40;99.90;;;;;;5052963;28;20951;-61
2023/12/12 08:46:58;;;;;;;16.50;3.97;;;10.40;99.90;;;;;;5052804;28;20931;-60
2023/12/12 08:49:26;;;;;;;9.20;3.30;;;10.50;99.90;;;;;;5053163;28;20437;-61
2023/12/12 08:51:53;;;;;;;10.67;3.40;;;10.50;99.90;;;;;;5053258;28;20907;-61
2023/12/12 08:54:19;;;;;;;15.70;4.13;;;10.60;99.90;;;;;;5053002;28;20442;-61
2023/12/12 08:56:52;;;;;;;14.30;3.23;;;10.60;99.90;;;;;;5053039;28;20450;-61
2023/12/12 08:59:21;;;;;;;12.33;3.70;;;10.70;99.90;;;;;;5063154;28;20518;-60
2023/12/12 09:01:47;;;;;;;11.17;2.77;;;10.70;99.90;;;;;;5066490;28;20538;-61
2023/12/12 09:04:16;;;;;;;10.60;3.53;;;10.70;99.90;;;;;;5062477;28;20978;-61
2023/12/12 09:06:43;;;;;;;15.47;3.27;;;10.70;99.90;;;;;;5053251;28;20481;-61
2023/12/12 09:09:11;;;;;;;11.90;3.67;;;10.70;99.90;;;;;;5053123;28;20488;-61
2023/12/12 09:11:38;;;;;;;17.20;4.20;;;10.70;99.90;;;;;;5056756;28;20465;-61
2023/12/12 09:14:06;;;;;;;11.20;4.00;;;10.80;99.90;;;;;;5056576;28;20523;-61
2023/12/12 09:16:33;;;;;;;11.30;3.10;;;10.80;99.90;;;;;;5056589;28;20453;-61
2023/12/12 09:19:00;;;;;;;5.77;2.73;;;10.90;99.90;;;;;;5056892;28;20779;-61
2023/12/12 09:21:27;;;;;;;9.10;2.73;;;10.90;99.90;;;;;;5056467;28;20485;-61
2023/12/12 09:23:54;;;;;;;11.27;3.77;;;10.90;99.90;;;;;;5056540;28;20449;-61
2023/12/12 09:26:20;;;;;;;7.40;3.00;;;11.00;99.90;;;;;;5056473;28;20453;-62
2023/12/12 09:28:48;;;;;;;13.57;3.73;;;11.00;99.90;;;;;;5056592;28;20454;-61
2023/12/12 09:31:25;;;;;;;11.67;3.60;;;11.00;99.90;;;;;;5055986;28;21013;-62
2023/12/12 09:33:51;;;;;;;13.80;4.97;;;11.10;99.90;;;;;;5056446;28;20798;-61
2023/12/12 09:36:18;;;;;;;8.30;3.30;;;11.20;99.90;;;;;;5055910;28;21042;-61
2023/12/12 09:38:45;;;;;;;10.40;3.20;;;11.30;99.90;;;;;;5056320;28;20450;-61
2023/12/12 09:41:16;;;;;;;10.17;2.90;;;11.30;99.90;;;;;;5056210;28;20581;-61
2023/12/12 09:43:45;;;;;;;9.07;3.07;;;11.30;99.90;;;;;;5056277;28;20429;-61
2023/12/12 09:46:12;;;;;;;18.60;3.77;;;11.30;99.90;;;;;;5056164;28;20452;-61
2023/12/12 09:48:41;;;;;;;8.00;3.60;;;11.30;99.90;;;;;;5057164;28;20445;-61
2023/12/12 09:51:09;;;;;;;13.27;4.17;;;11.20;99.90;;;;;;5055622;28;20477;-62
2023/12/12 09:53:36;;;;;;;13.93;4.83;;;11.20;99.90;;;;;;5055778;28;20972;-61
2023/12/12 09:56:04;;;;;;;9.03;2.97;;;11.20;99.90;;;;;;5055823;28;20477;-62
2023/12/12 09:58:31;;;;;;;14.93;4.07;;;11.20;99.90;;;;;;5055855;28;20464;-61
2023/12/12 10:01:01;;;;;;;11.20;3.40;;;11.20;99.90;;;;;;5055857;28;20457;-61
2023/12/12 10:03:28;;;;;;;14.10;4.10;;;11.20;99.90;;;;;;5055388;28;20492;-62
2023/12/12 10:05:59;;;;;;;10.10;3.10;;;11.20;99.90;;;;;;5055834;28;20449;-61
2023/12/12 10:08:26;;;;;;;10.03;3.70;;;11.30;99.90;;;;;;5055338;28;20803;-61
2023/12/12 10:10:53;;;;;;;8.30;2.57;;;11.30;99.90;;;;;;5055730;28;20890;-62
2023/12/12 10:13:19;;;;;;;8.07;3.70;;;11.30;99.90;;;;;;5055927;28;20470;-61
2023/12/12 10:15:47;;;;;;;10.37;3.60;;;11.40;99.90;;;;;;5055499;28;20968;-62
2023/12/12 10:18:14;;;;;;;11.87;3.63;;;11.30;99.90;;;;;;5063833;28;20931;-61
2023/12/12 10:20:41;;;;;;;7.57;2.97;;;11.30;99.90;;;;;;5076087;28;20472;-62
2023/12/12 10:23:09;;;;;;;7.00;2.70;;;11.40;99.90;;;;;;5075195;28;20481;-62
2023/12/12 10:25:36;;;;;;;12.73;3.20;;;11.50;99.90;;;;;;5075453;28;20443;-62
2023/12/12 10:28:03;;;;;;;11.53;3.43;;;11.60;99.90;;;;;;5075312;28;20453;-61
2023/12/12 10:30:30;;;;;;;11.60;3.43;;;11.70;99.90;;;;;;5075021;28;20490;-62
2023/12/12 10:32:57;;;;;;;11.43;3.30;;;11.80;99.90;;;;;;5075151;28;20445;-61
2023/12/12 10:35:25;;;;;;;11.87;3.43;;;11.80;99.90;;;;;;5074990;28;20459;-62
2023/12/12 10:37:52;;;;;;;7.97;2.70;;;11.90;99.90;;;;;;5075135;28;20819;-62
2023/12/12 10:40:22;;;;;;;8.43;3.03;;;12.00;99.90;;;;;;5074545;28;21021;-62
2023/12/12 10:42:49;;;;;;;9.93;2.67;;;12.10;99.90;;;;;;5074572;28;20854;-61
2023/12/12 10:45:17;;;;;;;6.07;2.90;;;12.10;99.90;;;;;;5074579;28;20851;-62
2023/12/12 10:47:46;;;;;;;14.17;3.70;;;12.10;99.90;;;;;;5074935;28;20468;-62
2023/12/12 10:50:14;;;;;;;10.77;3.83;;;12.10;99.90;;;;;;5074874;28;20467;-62
2023/12/12 10:52:43;;;;;;;11.53;3.00;;;12.00;99.90;;;;;;5074902;28;20444;-61
2023/12/12 10:55:11;;;;;;;15.97;2.90;;;12.00;99.90;;;;;;5074547;28;20555;-62
2023/12/12 10:57:42;;;;;;;7.80;3.90;;;11.80;99.90;;;;;;5074555;28;20448;-62
2023/12/12 11:00:12;;;;;;;12.63;3.07;;;11.80;99.90;;;;;;5074242;28;20825;-62
2023/12/12 11:02:40;;;;;;;7.00;2.40;;;11.80;99.90;;;;;;5074489;28;20484;-62
2023/12/12 11:05:10;;;;;;;9.80;2.50;;;11.80;99.90;;;;;;5074379;28;20440;-62
2023/12/12 11:07:38;;;;;;;5.50;3.00;;;11.80;99.90;;;;;;5074382;28;20444;-62
2023/12/12 11:10:10;;;;;;;11.07;3.00;;;11.80;99.90;;;;;;5074099;28;20444;-62
2023/12/12 11:12:41;;;;;;;5.77;2.20;;;11.80;99.90;;;;;;5074670;28;20441;-62
2023/12/12 11:15:11;;;;;;;6.37;1.90;;;11.90;99.90;;;;;;5074801;28;20449;-62
2023/12/12 11:17:39;;;;;;;6.27;2.00;;;12.00;99.90;;;;;;5075237;28;20487;-63
2023/12/12 11:20:17;;;;;;;4.07;1.83;;;12.00;99.90;;;;;;5074413;28;20443;-62
2023/12/12 11:22:45;;;;;;;4.97;1.60;;;11.90;99.90;;;;;;5074351;28;20472;-62
2023/12/12 11:25:19;;;;;;;3.10;1.60;;;11.70;99.90;;;;;;5074919;28;20433;-62
2023/12/12 11:27:49;;;;;;;6.00;1.73;;;11.60;99.90;;;;;;5074463;28;20428;-62
2023/12/12 11:30:16;;;;;;;4.77;1.60;;;11.60;99.90;;;;;;5074144;28;21001;-62
2023/12/12 11:32:43;;;;;;;3.83;1.87;;;11.50;99.90;;;;;;5073634;28;20445;-62
2023/12/12 11:35:28;;;;;;;6.33;1.70;;;11.60;99.90;;;;;;5074285;28;20468;-62
2023/12/12 11:37:55;;;;;;;5.20;1.70;;;11.80;99.90;;;;;;5074086;28;20512;-62
2023/12/12 11:40:24;;;;;;;4.60;2.90;;;11.90;99.90;;;;;;5073858;28;20460;-62
2023/12/12 11:42:53;;;;;;;2.80;2.00;;;11.90;99.90;;;;;;5073836;28;20472;-62
2023/12/12 11:45:32;;;;;;;3.40;1.60;;;11.80;99.90;;;;;;5073792;28;20449;-62
2023/12/12 11:48:01;;;;;;;3.00;1.63;;;11.80;99.90;;;;;;5073708;28;20441;-62
2023/12/12 11:50:31;;;;;;;7.57;2.83;;;11.70;99.90;;;;;;5073622;28;20461;-62
2023/12/12 11:52:57;;;;;;;5.10;1.80;;;11.70;99.90;;;;;;5073463;28;20804;-62
2023/12/12 11:55:29;;;;;;;3.30;1.70;;;11.60;99.90;;;;;;5073649;28;20512;-63
2023/12/12 11:58:00;;;;;;;3.53;2.13;;;11.50;99.90;;;;;;5074038;28;20483;-62
2023/12/12 12:00:32;;;;;;;3.27;1.60;;;11.50;99.90;;;;;;5059315;28;20559;-61
2023/12/12 12:02:59;;;;;;;5.07;2.00;;;11.50;99.90;;;;;;5053214;28;20481;-60
2023/12/12 12:05:25;;;;;;;4.87;1.80;;;11.60;99.90;;;;;;5053505;28;20492;-59
2023/12/12 12:07:52;;;;;;;6.03;2.90;;;11.70;99.90;;;;;;5053228;28;20441;-60
2023/12/12 12:10:19;;;;;;;9.60;4.70;;;11.80;99.90;;;;;;5053600;28;20469;-61
2023/12/12 12:12:54;;;;;;;9.87;4.70;;;11.90;99.90;;;;;;5053472;28;20452;-60
2023/12/12 12:15:23;;;;;;;11.00;4.70;;;12.00;99.90;;;;;;5053049;28;20954;-60
2023/12/12 12:17:49;;;;;;;14.23;5.10;;;12.10;99.90;;;;;;5053415;28;20828;-60
2023/12/12 12:20:16;;;;;;;9.90;4.63;;;12.10;99.90;;;;;;5053314;28;20462;-61
2023/12/12 12:22:43;;;;;;;10.63;3.03;;;12.10;99.90;;;;;;5053382;28;20488;-62
2023/12/12 12:25:10;;;;;;;10.87;5.00;;;12.10;99.90;;;;;;5053174;28;20457;-60
2023/12/12 12:27:50;;;;;;;6.80;3.13;;;12.20;99.90;;;;;;5053171;28;20460;-60
2023/12/12 12:30:18;;;;;;;6.60;3.47;;;12.20;99.90;;;;;;5053245;28;20979;-60
2023/12/12 12:32:59;;;;;;;8.93;4.37;;;12.20;99.90;;;;;;5053297;28;20441;-59
2023/12/12 12:35:26;;;;;;;13.20;5.40;;;12.20;99.90;;;;;;5053131;28;20441;-60
2023/12/12 12:37:53;;;;;;;9.57;4.80;;;12.10;99.90;;;;;;5053110;28;20445;-60
2023/12/12 12:40:33;;;;;;;13.70;5.77;;;12.10;99.90;;;;;;5052876;28;21053;-60
2023/12/12 12:43:00;;;;;;;8.67;5.13;;;12.10;99.90;;;;;;5053088;28;20518;-61
2023/12/12 12:45:27;;;;;;;9.40;5.43;;;12.10;99.90;;;;;;5055529;28;20452;-60